Aviation Digital Data Service (ADDS)

Output produced by METARs form (1136 UTC 22 September 2017)
found at http://aviationweather.gov/adds/metars/
 
KCKB 221131Z 2212/2312 00000KT 1/4SM FG VV001 
     FM221300 00000KT 1SM BR OVC001 
     FM221330 00000KT 3SM BR BKN002 
     FM221400 04003KT P6SM FEW050 
     FM230000 00000KT P6SM SKC 
     FM230700 00000KT 4SM BR SKC 
     FM230900 00000KT 1/4SM FG VV001